createdAt,value
2023-01-19T00:00:53.907Z,0.00
2023-01-19T00:03:21.411Z,0.00
2023-01-19T00:05:48.753Z,0.00
2023-01-19T00:08:15.874Z,-0.10
2023-01-19T00:10:45.165Z,-0.10
2023-01-19T00:13:12.413Z,-0.10
2023-01-19T00:15:39.805Z,-0.10
2023-01-19T00:18:07.611Z,-0.10
2023-01-19T00:20:36.103Z,-0.10
2023-01-19T00:23:03.392Z,-0.10
2023-01-19T00:25:30.898Z,-0.10
2023-01-19T00:27:58.895Z,0.00
2023-01-19T00:30:27.710Z,0.00
2023-01-19T00:32:54.247Z,-0.10
2023-01-19T00:35:21.184Z,0.00
2023-01-19T00:37:48.502Z,0.00
2023-01-19T00:40:15.219Z,-0.10
2023-01-19T00:42:44.693Z,-0.10
2023-01-19T00:45:18.815Z,-0.10
2023-01-19T00:47:47.272Z,0.00
2023-01-19T00:50:16.665Z,0.00
2023-01-19T00:52:45.237Z,0.00
2023-01-19T00:55:13.550Z,0.00
2023-01-19T00:57:41.758Z,0.00
2023-01-19T01:00:14.242Z,0.10
2023-01-19T01:02:43.048Z,0.10
2023-01-19T01:05:11.029Z,0.20
2023-01-19T01:07:42.155Z,0.20
2023-01-19T01:10:15.448Z,0.30
2023-01-19T01:12:57.399Z,0.30
2023-01-19T01:15:27.033Z,0.30
2023-01-19T01:17:54.877Z,0.30
2023-01-19T01:20:25.170Z,0.30
2023-01-19T01:22:54.272Z,0.20
2023-01-19T01:25:22.890Z,0.30
2023-01-19T01:27:50.948Z,0.30
2023-01-19T01:30:17.969Z,0.30
2023-01-19T01:32:45.362Z,0.30
2023-01-19T01:35:12.810Z,0.40
2023-01-19T01:37:40.905Z,0.40
2023-01-19T01:40:08.708Z,0.40
2023-01-19T01:42:36.051Z,0.40
2023-01-19T01:45:07.384Z,0.30
2023-01-19T01:47:44.588Z,0.30
2023-01-19T01:50:24.938Z,0.30
2023-01-19T01:53:12.491Z,0.30
2023-01-19T01:55:45.322Z,0.20
2023-01-19T01:58:15.031Z,0.30
2023-01-19T02:01:00.939Z,0.20
2023-01-19T02:03:29.117Z,0.20
2023-01-19T02:05:59.242Z,0.20
2023-01-19T02:09:10.806Z,0.20
2023-01-19T02:11:57.094Z,0.20
2023-01-19T02:14:23.826Z,0.20
2023-01-19T02:16:50.919Z,0.10
2023-01-19T02:19:24.750Z,0.10
2023-01-19T02:22:18.527Z,0.20
2023-01-19T02:24:45.231Z,0.20
2023-01-19T02:27:12.866Z,0.20
2023-01-19T02:29:39.775Z,0.20
2023-01-19T02:32:08.168Z,0.20
2023-01-19T02:34:35.410Z,0.20
2023-01-19T02:37:07.723Z,0.20
2023-01-19T02:39:39.065Z,0.20
2023-01-19T02:42:21.633Z,0.30
2023-01-19T02:44:50.647Z,0.20
2023-01-19T02:47:18.628Z,0.30
2023-01-19T02:49:53.373Z,0.30
2023-01-19T02:52:20.730Z,0.30
2023-01-19T02:55:10.333Z,0.30
2023-01-19T02:57:39.458Z,0.40
2023-01-19T03:00:25.063Z,0.50
2023-01-19T03:03:02.970Z,0.50
2023-01-19T03:06:08.612Z,0.60
2023-01-19T03:08:43.050Z,0.70
2023-01-19T03:11:12.500Z,0.70
2023-01-19T03:13:47.399Z,0.80
2023-01-19T03:16:41.058Z,0.80
2023-01-19T03:19:32.136Z,0.90
2023-01-19T03:22:03.494Z,0.90
2023-01-19T03:24:44.654Z,0.90
2023-01-19T03:27:18.388Z,1.00
2023-01-19T03:29:52.163Z,1.00
2023-01-19T03:32:23.925Z,1.00
2023-01-19T03:34:52.403Z,0.90
2023-01-19T03:37:20.301Z,0.90
2023-01-19T03:39:47.703Z,0.90
2023-01-19T03:42:16.376Z,0.90
2023-01-19T03:44:45.596Z,0.90
2023-01-19T03:47:14.649Z,0.90
2023-01-19T03:49:43.332Z,0.90
2023-01-19T03:52:10.300Z,0.90
2023-01-19T03:54:37.650Z,0.80
2023-01-19T03:57:04.310Z,0.80
2023-01-19T03:59:31.558Z,0.80
2023-01-19T04:01:58.528Z,0.70
2023-01-19T04:04:25.761Z,0.70
2023-01-19T04:06:52.437Z,0.70
2023-01-19T04:09:20.187Z,0.70
2023-01-19T04:11:46.867Z,0.60
2023-01-19T04:14:14.117Z,0.60
2023-01-19T04:16:40.723Z,0.60
2023-01-19T04:19:08.039Z,0.60
2023-01-19T04:21:35.091Z,0.60
2023-01-19T04:24:02.363Z,0.50
2023-01-19T04:26:29.015Z,0.50
2023-01-19T04:28:56.269Z,0.50
2023-01-19T04:31:23.306Z,0.40
2023-01-19T04:33:50.673Z,0.40
2023-01-19T04:36:17.361Z,0.30
2023-01-19T04:38:46.787Z,0.30
2023-01-19T04:41:13.630Z,0.30
2023-01-19T04:43:41.097Z,0.30
2023-01-19T04:46:07.834Z,0.30
2023-01-19T04:48:35.186Z,0.30
2023-01-19T04:51:02.049Z,0.30
2023-01-19T04:53:29.650Z,0.30
2023-01-19T04:55:56.394Z,0.30
2023-01-19T04:58:23.731Z,0.20
2023-01-19T05:00:51.121Z,0.20
2023-01-19T05:03:19.597Z,0.20
2023-01-19T05:05:46.420Z,0.20
2023-01-19T05:08:13.352Z,0.20
2023-01-19T05:10:40.672Z,0.20
2023-01-19T05:13:07.591Z,0.20
2023-01-19T05:15:34.167Z,0.20
2023-01-19T05:18:01.495Z,0.20
2023-01-19T05:20:28.124Z,0.20
2023-01-19T05:22:54.733Z,0.20
2023-01-19T05:25:21.987Z,0.20
2023-01-19T05:27:48.783Z,0.30
2023-01-19T05:30:16.724Z,0.30
2023-01-19T05:32:43.440Z,0.30
2023-01-19T05:35:10.838Z,0.30
2023-01-19T05:37:37.479Z,0.30
2023-01-19T05:40:05.547Z,0.30
2023-01-19T05:42:33.031Z,0.30
2023-01-19T05:45:00.520Z,0.20
2023-01-19T05:47:29.883Z,0.30
2023-01-19T05:49:57.509Z,0.30
2023-01-19T05:52:24.893Z,0.30
2023-01-19T05:54:52.517Z,0.30
2023-01-19T05:57:19.133Z,0.30
2023-01-19T05:59:46.563Z,0.20
2023-01-19T06:02:13.298Z,0.30
2023-01-19T06:04:40.703Z,0.30
2023-01-19T06:07:07.337Z,0.30
2023-01-19T06:09:34.691Z,0.30
2023-01-19T06:12:01.349Z,0.30
2023-01-19T06:14:28.678Z,0.30
2023-01-19T06:16:55.337Z,0.30
2023-01-19T06:19:22.597Z,0.30
2023-01-19T06:21:52.501Z,0.30
2023-01-19T06:24:20.054Z,0.30
2023-01-19T06:26:46.818Z,0.40
2023-01-19T06:29:14.769Z,0.40
2023-01-19T06:31:42.278Z,0.40
2023-01-19T06:34:10.084Z,0.40
2023-01-19T06:36:36.709Z,0.40
2023-01-19T06:39:06.102Z,0.40
2023-01-19T06:41:34.082Z,0.40
2023-01-19T06:44:01.613Z,0.40
2023-01-19T06:46:29.204Z,0.40
2023-01-19T06:48:56.102Z,0.50
2023-01-19T06:51:23.676Z,0.40
2023-01-19T06:53:50.465Z,0.40
2023-01-19T06:56:17.759Z,0.40
2023-01-19T06:58:47.024Z,0.40
2023-01-19T07:01:14.469Z,0.50
2023-01-19T07:03:41.312Z,0.40
2023-01-19T07:06:09.002Z,0.50
2023-01-19T07:08:36.833Z,0.50
2023-01-19T07:11:26.650Z,0.50
2023-01-19T07:13:55.269Z,0.50
2023-01-19T07:16:22.759Z,0.50
2023-01-19T07:18:49.965Z,0.50
2023-01-19T07:21:17.722Z,0.50
2023-01-19T07:23:44.582Z,0.50
2023-01-19T07:26:12.098Z,0.50
2023-01-19T07:28:39.779Z,0.50
2023-01-19T07:31:07.170Z,0.50
2023-01-19T07:33:33.945Z,0.50
2023-01-19T07:36:01.225Z,0.50
2023-01-19T07:38:28.120Z,0.50
2023-01-19T07:41:06.878Z,0.50
2023-01-19T07:43:34.344Z,0.60
2023-01-19T07:46:05.348Z,0.60
2023-01-19T07:48:32.124Z,0.60
2023-01-19T07:51:01.179Z,0.60
2023-01-19T07:53:27.948Z,0.60
2023-01-19T07:55:56.758Z,0.60
2023-01-19T07:58:24.295Z,0.60
2023-01-19T08:00:51.768Z,0.60
2023-01-19T08:03:18.652Z,0.60
2023-01-19T08:05:49.794Z,0.60
2023-01-19T08:08:16.473Z,0.60
2023-01-19T08:10:43.422Z,0.60
2023-01-19T08:13:10.119Z,0.60
2023-01-19T08:15:37.819Z,0.70
2023-01-19T08:18:05.550Z,0.70
2023-01-19T08:20:33.030Z,0.60
2023-01-19T08:23:01.149Z,0.70
2023-01-19T08:25:37.403Z,0.70
2023-01-19T08:28:06.142Z,0.70
2023-01-19T08:30:33.490Z,0.70
2023-01-19T08:33:08.903Z,0.70
2023-01-19T08:35:38.674Z,0.70
2023-01-19T08:38:06.339Z,0.80
2023-01-19T08:40:36.618Z,0.80
2023-01-19T08:43:09.535Z,0.80
2023-01-19T08:45:38.027Z,0.90
2023-01-19T08:48:06.115Z,0.90
2023-01-19T08:50:34.205Z,0.90
2023-01-19T08:53:03.409Z,0.90
2023-01-19T08:55:30.343Z,0.90
2023-01-19T08:58:00.389Z,0.90
2023-01-19T09:00:27.844Z,0.90
2023-01-19T09:02:56.840Z,1.00
2023-01-19T09:05:23.869Z,1.00
2023-01-19T09:07:51.911Z,1.00
2023-01-19T09:10:19.129Z,1.00
2023-01-19T09:12:46.664Z,1.00
2023-01-19T09:15:16.472Z,1.00
2023-01-19T09:17:43.822Z,1.10
2023-01-19T09:20:10.980Z,1.10
2023-01-19T09:22:39.798Z,1.10
2023-01-19T09:25:07.754Z,1.20
2023-01-19T09:27:35.277Z,1.20
2023-01-19T09:30:02.599Z,1.20
2023-01-19T09:32:29.676Z,1.20
2023-01-19T09:34:56.714Z,1.20
2023-01-19T09:37:23.350Z,1.30
2023-01-19T09:39:50.082Z,1.30
2023-01-19T09:42:43.630Z,1.30
2023-01-19T09:45:34.049Z,1.30
2023-01-19T09:48:04.730Z,1.30
2023-01-19T09:50:37.990Z,1.40
2023-01-19T09:53:20.045Z,1.40
2023-01-19T09:55:46.923Z,1.40
2023-01-19T09:58:16.779Z,1.40
2023-01-19T10:00:54.955Z,1.40
2023-01-19T10:03:24.189Z,1.40
2023-01-19T10:05:57.043Z,1.40
2023-01-19T10:08:48.955Z,1.40
2023-01-19T10:11:51.562Z,1.50
2023-01-19T10:14:35.256Z,1.50
2023-01-19T10:17:38.617Z,1.50
2023-01-19T10:20:18.137Z,1.50
2023-01-19T10:22:48.884Z,1.50
2023-01-19T10:25:21.455Z,1.60
2023-01-19T10:27:48.888Z,1.80
2023-01-19T10:30:22.612Z,1.90
2023-01-19T10:32:50.563Z,2.00
2023-01-19T10:35:24.500Z,1.90
2023-01-19T10:37:56.355Z,1.90
2023-01-19T10:40:38.586Z,1.90
2023-01-19T10:43:35.272Z,1.90
2023-01-19T10:46:17.161Z,1.90
2023-01-19T10:48:48.310Z,1.90
2023-01-19T10:51:15.232Z,1.90
2023-01-19T10:53:56.025Z,1.90
2023-01-19T10:56:29.265Z,1.90
2023-01-19T10:58:57.597Z,1.90
2023-01-19T11:01:26.400Z,1.90
2023-01-19T11:03:55.007Z,1.90
2023-01-19T11:06:24.669Z,1.90
2023-01-19T11:08:53.358Z,1.90
2023-01-19T11:11:23.157Z,2.00
2023-01-19T11:14:24.254Z,2.10
2023-01-19T11:16:56.498Z,2.10
2023-01-19T11:19:32.809Z,2.10
2023-01-19T11:22:24.663Z,2.10
2023-01-19T11:24:52.441Z,2.20
2023-01-19T11:27:22.563Z,2.20
2023-01-19T11:30:10.585Z,2.20
2023-01-19T11:32:37.389Z,2.30
2023-01-19T11:35:34.208Z,2.30
2023-01-19T11:38:27.481Z,2.30
2023-01-19T11:40:55.435Z,2.50
2023-01-19T11:43:25.415Z,2.60
2023-01-19T11:45:52.116Z,2.80
2023-01-19T11:48:29.443Z,3.00
2023-01-19T11:50:59.641Z,3.10
2023-01-19T11:53:33.412Z,3.10
2023-01-19T11:56:10.588Z,3.20
2023-01-19T11:58:40.970Z,3.20
2023-01-19T12:01:45.896Z,3.10
2023-01-19T12:04:36.892Z,3.10
2023-01-19T12:07:08.742Z,3.10
2023-01-19T12:09:53.282Z,3.00
2023-01-19T12:12:33.341Z,2.90
2023-01-19T12:15:11.198Z,2.80
2023-01-19T12:17:47.119Z,2.80
2023-01-19T12:20:40.491Z,2.90
2023-01-19T12:23:36.308Z,2.80
2023-01-19T12:26:24.502Z,2.80
2023-01-19T12:28:52.929Z,2.90
2023-01-19T12:31:22.000Z,2.90
2023-01-19T12:33:49.496Z,2.90
2023-01-19T12:36:35.207Z,2.90
2023-01-19T12:39:03.423Z,3.00
2023-01-19T12:41:33.460Z,3.10
2023-01-19T12:44:12.686Z,3.20
2023-01-19T12:46:49.936Z,3.30
2023-01-19T12:49:26.605Z,3.30
2023-01-19T12:52:30.518Z,3.20
2023-01-19T12:55:02.253Z,3.20
2023-01-19T12:57:34.834Z,3.10
2023-01-19T13:00:14.279Z,3.20
2023-01-19T13:02:44.604Z,3.30
2023-01-19T13:05:32.521Z,3.20
2023-01-19T13:08:02.811Z,3.20
2023-01-19T13:10:54.359Z,3.00
2023-01-19T13:13:22.948Z,3.00
2023-01-19T13:15:50.932Z,3.10
2023-01-19T13:18:21.440Z,3.00
2023-01-19T13:21:04.821Z,3.00
2023-01-19T13:23:49.827Z,3.10
2023-01-19T13:26:22.105Z,3.20
2023-01-19T13:29:10.424Z,3.30
2023-01-19T13:31:39.600Z,3.40
2023-01-19T13:34:13.726Z,3.40
2023-01-19T13:36:45.394Z,3.40
2023-01-19T13:39:37.410Z,3.50
2023-01-19T13:42:16.738Z,3.50
2023-01-19T13:44:52.546Z,3.40
2023-01-19T13:47:23.212Z,3.50
2023-01-19T13:49:58.490Z,3.50
2023-01-19T13:52:29.401Z,3.40
2023-01-19T13:55:01.742Z,3.40
2023-01-19T13:57:43.191Z,3.30
2023-01-19T14:00:14.561Z,3.30
2023-01-19T14:03:02.003Z,3.20
2023-01-19T14:05:34.652Z,3.20
2023-01-19T14:08:11.097Z,3.10
2023-01-19T14:10:47.369Z,3.10
2023-01-19T14:13:18.849Z,3.00
2023-01-19T14:15:48.208Z,2.80
2023-01-19T14:18:17.754Z,2.70
2023-01-19T14:20:56.076Z,2.60
2023-01-19T14:24:06.923Z,2.50
2023-01-19T14:26:51.160Z,2.40
2023-01-19T14:29:23.805Z,2.30
2023-01-19T14:32:04.065Z,2.20
2023-01-19T14:34:45.100Z,2.20
2023-01-19T14:37:22.146Z,2.20
2023-01-19T14:40:11.068Z,2.20
2023-01-19T14:43:06.082Z,2.20
2023-01-19T14:45:43.017Z,2.20
2023-01-19T14:48:18.157Z,2.20
2023-01-19T14:51:01.987Z,2.20
2023-01-19T14:53:36.762Z,2.30
2023-01-19T14:56:06.154Z,2.30
2023-01-19T14:58:35.036Z,2.30
2023-01-19T15:01:02.470Z,2.30
2023-01-19T15:03:47.727Z,2.30
2023-01-19T15:06:18.547Z,2.30
2023-01-19T15:08:46.064Z,2.10
2023-01-19T15:11:26.103Z,2.10
2023-01-19T15:13:53.100Z,2.10
2023-01-19T15:16:20.418Z,2.00
2023-01-19T15:18:47.029Z,2.00
2023-01-19T15:21:23.476Z,2.00
2023-01-19T15:23:50.518Z,1.90
2023-01-19T15:26:19.256Z,1.90
2023-01-19T15:28:46.772Z,2.00
2023-01-19T15:31:16.725Z,2.00
2023-01-19T15:33:43.759Z,1.90
2023-01-19T15:36:14.148Z,1.90
2023-01-19T15:38:42.004Z,1.80
2023-01-19T15:41:23.076Z,1.70
2023-01-19T15:43:50.487Z,1.70
2023-01-19T15:46:23.586Z,1.50
2023-01-19T15:48:50.617Z,1.40
2023-01-19T15:51:20.292Z,1.30
2023-01-19T15:53:47.554Z,1.20
2023-01-19T15:56:16.364Z,1.20
2023-01-19T15:58:43.905Z,1.10
2023-01-19T16:01:16.174Z,1.10
2023-01-19T16:03:43.475Z,1.10
2023-01-19T16:06:10.963Z,1.10
2023-01-19T16:08:38.007Z,1.10
2023-01-19T16:11:10.633Z,1.10
2023-01-19T16:13:37.914Z,1.10
2023-01-19T16:16:08.706Z,1.00
2023-01-19T16:18:36.055Z,0.90
2023-01-19T16:21:03.361Z,0.80
2023-01-19T16:23:30.102Z,0.70
2023-01-19T16:26:07.921Z,0.60
2023-01-19T16:28:37.673Z,0.50
2023-01-19T16:31:05.301Z,0.50
2023-01-19T16:33:32.094Z,0.40
2023-01-19T16:35:59.410Z,0.30
2023-01-19T16:38:26.244Z,0.20
2023-01-19T16:40:53.603Z,0.20
2023-01-19T16:43:20.246Z,0.10
2023-01-19T16:46:02.216Z,0.10
2023-01-19T16:48:29.636Z,0.10
2023-01-19T16:51:02.147Z,0.00
2023-01-19T16:53:29.341Z,0.00
2023-01-19T16:55:56.744Z,0.00
2023-01-19T16:58:23.429Z,0.00
2023-01-19T17:00:50.841Z,0.00
2023-01-19T17:03:17.625Z,-0.10
2023-01-19T17:05:51.713Z,-0.10
2023-01-19T17:08:19.845Z,-0.10
2023-01-19T17:10:48.139Z,-0.20
2023-01-19T17:13:15.325Z,-0.20
2023-01-19T17:15:43.483Z,-0.20
2023-01-19T17:18:10.204Z,-0.20
2023-01-19T17:20:37.618Z,-0.20
2023-01-19T17:23:04.302Z,-0.20
2023-01-19T17:25:31.307Z,-0.20
2023-01-19T17:28:01.017Z,-0.20
2023-01-19T17:30:28.306Z,-0.20
2023-01-19T17:32:54.959Z,-0.30
2023-01-19T17:35:21.927Z,-0.30
2023-01-19T17:37:48.617Z,-0.30
2023-01-19T17:40:16.416Z,-0.30
2023-01-19T17:42:43.073Z,-0.30
2023-01-19T17:45:11.288Z,-0.40
2023-01-19T17:47:38.488Z,-0.40
2023-01-19T17:50:06.203Z,-0.40
2023-01-19T17:52:33.012Z,-0.50
2023-01-19T17:55:00.625Z,-0.40
2023-01-19T17:57:27.776Z,-0.40
2023-01-19T17:59:55.004Z,-0.40
2023-01-19T18:02:24.250Z,-0.40
2023-01-19T18:04:54.961Z,-0.40
2023-01-19T18:07:21.700Z,-0.30
2023-01-19T18:09:48.659Z,-0.30
2023-01-19T18:12:15.898Z,-0.40
2023-01-19T18:14:43.202Z,-0.40
2023-01-19T18:17:09.886Z,-0.40
2023-01-19T18:19:37.493Z,-0.40
2023-01-19T18:22:04.065Z,-0.40
2023-01-19T18:24:31.497Z,-0.50
2023-01-19T18:26:58.154Z,-0.50
2023-01-19T18:29:25.735Z,-0.50
2023-01-19T18:31:52.384Z,-0.50
2023-01-19T18:34:19.383Z,-0.40
2023-01-19T18:36:46.194Z,-0.40
2023-01-19T18:39:13.764Z,-0.40
2023-01-19T18:41:42.102Z,-0.40
2023-01-19T18:44:10.296Z,-0.40
2023-01-19T18:46:38.399Z,-0.30
2023-01-19T18:49:06.001Z,-0.30
2023-01-19T18:51:32.632Z,-0.30
2023-01-19T18:54:00.162Z,-0.30
2023-01-19T18:56:27.219Z,-0.30
2023-01-19T18:58:54.206Z,-0.30
2023-01-19T19:01:24.814Z,-0.30
2023-01-19T19:03:53.641Z,-0.40
2023-01-19T19:06:20.882Z,-0.40
2023-01-19T19:08:52.814Z,-0.40
2023-01-19T19:11:21.411Z,-0.50
2023-01-19T19:13:57.720Z,-0.50
2023-01-19T19:16:24.616Z,-0.50
2023-01-19T19:18:52.189Z,-0.60
2023-01-19T19:21:20.469Z,-0.60
2023-01-19T19:23:55.688Z,-0.60
2023-01-19T19:26:23.660Z,-0.60
2023-01-19T19:28:51.005Z,-0.60
2023-01-19T19:31:20.326Z,-0.60
2023-01-19T19:33:51.730Z,-0.60
2023-01-19T19:36:19.800Z,-0.60
2023-01-19T19:38:47.859Z,-0.60
2023-01-19T19:41:20.517Z,-0.60
2023-01-19T19:43:47.680Z,-0.60
2023-01-19T19:46:16.457Z,-0.60
2023-01-19T19:48:43.579Z,-0.70
2023-01-19T19:51:18.987Z,-0.70
2023-01-19T19:53:49.572Z,-0.70
2023-01-19T19:56:19.700Z,-0.80
2023-01-19T19:58:47.485Z,-0.80
2023-01-19T20:01:20.043Z,-0.80
2023-01-19T20:03:47.727Z,-0.90
2023-01-19T20:06:17.988Z,-0.90
2023-01-19T20:08:44.634Z,-0.90
2023-01-19T20:11:16.868Z,-0.90
2023-01-19T20:13:45.051Z,-1.00
2023-01-19T20:16:15.311Z,-1.00
2023-01-19T20:18:44.122Z,-1.00
2023-01-19T20:21:17.034Z,-1.00
2023-01-19T20:23:47.317Z,-1.00
2023-01-19T20:26:16.154Z,-1.10
2023-01-19T20:28:43.086Z,-1.10
2023-01-19T20:31:12.504Z,-1.10
2023-01-19T20:33:39.691Z,-1.10
2023-01-19T20:36:06.650Z,-1.20
2023-01-19T20:38:33.517Z,-1.20
2023-01-19T20:41:00.911Z,-1.20
2023-01-19T20:43:28.687Z,-1.20
2023-01-19T20:45:56.330Z,-1.20
2023-01-19T20:48:23.139Z,-1.20
2023-01-19T20:50:50.851Z,-1.20
2023-01-19T20:53:17.471Z,-1.20
2023-01-19T20:55:44.847Z,-1.20
2023-01-19T20:58:11.526Z,-1.20
2023-01-19T21:00:41.003Z,-1.20
2023-01-19T21:03:07.712Z,-1.20
2023-01-19T21:05:34.748Z,-1.20
2023-01-19T21:08:01.351Z,-1.20
2023-01-19T21:10:29.571Z,-1.30
2023-01-19T21:12:56.262Z,-1.30
2023-01-19T21:15:23.726Z,-1.30
2023-01-19T21:17:50.318Z,-1.30
2023-01-19T21:20:18.081Z,-1.40
2023-01-19T21:22:45.484Z,-1.40
2023-01-19T21:25:13.010Z,-1.40
2023-01-19T21:27:39.891Z,-1.40
2023-01-19T21:30:07.749Z,-1.40
2023-01-19T21:32:34.402Z,-1.40
2023-01-19T21:35:01.370Z,-1.40
2023-01-19T21:37:30.427Z,-1.40
2023-01-19T21:39:57.787Z,-1.40
2023-01-19T21:42:24.517Z,-1.50
2023-01-19T21:44:51.896Z,-1.50
2023-01-19T21:47:18.566Z,-1.50
2023-01-19T21:49:45.907Z,-1.50
2023-01-19T21:52:12.529Z,-1.50
2023-01-19T21:54:39.956Z,-1.50
2023-01-19T21:57:06.572Z,-1.50
2023-01-19T21:59:33.809Z,-1.50
2023-01-19T22:02:00.580Z,-1.50
2023-01-19T22:04:28.659Z,-1.50
2023-01-19T22:06:55.277Z,-1.60
2023-01-19T22:09:22.633Z,-1.60
2023-01-19T22:11:49.430Z,-1.60
2023-01-19T22:14:16.696Z,-1.60
2023-01-19T22:16:43.435Z,-1.60
2023-01-19T22:19:13.137Z,-1.60
2023-01-19T22:21:40.073Z,-1.60
2023-01-19T22:24:07.717Z,-1.60
2023-01-19T22:26:35.014Z,-1.60
2023-01-19T22:29:04.053Z,-1.60
2023-01-19T22:31:31.359Z,-1.60
2023-01-19T22:33:58.715Z,-1.60
2023-01-19T22:36:28.044Z,-1.60
2023-01-19T22:39:00.598Z,-1.60
2023-01-19T22:41:28.695Z,-1.60
2023-01-19T22:43:58.207Z,-1.60
2023-01-19T22:46:27.535Z,-1.60
2023-01-19T22:48:55.894Z,-1.70
2023-01-19T22:51:23.764Z,-1.70
2023-01-19T22:53:51.614Z,-1.70
2023-01-19T22:56:23.392Z,-1.70
2023-01-19T22:58:51.161Z,-1.60
2023-01-19T23:01:21.014Z,-1.60
2023-01-19T23:03:48.412Z,-1.60
2023-01-19T23:06:22.327Z,-1.50
2023-01-19T23:08:49.675Z,-1.40
2023-01-19T23:11:43.078Z,-1.40
2023-01-19T23:14:15.241Z,-1.40
2023-01-19T23:16:42.061Z,-1.30
2023-01-19T23:19:12.468Z,-1.30
2023-01-19T23:21:39.674Z,-1.40
2023-01-19T23:24:07.249Z,-1.40
2023-01-19T23:26:37.939Z,-1.40
2023-01-19T23:29:12.511Z,-1.40
2023-01-19T23:31:42.899Z,-1.40
2023-01-19T23:34:12.399Z,-1.40
2023-01-19T23:36:40.851Z,-1.40
2023-01-19T23:39:18.583Z,-1.30
2023-01-19T23:41:45.871Z,-1.30
2023-01-19T23:44:13.917Z,-1.30
2023-01-19T23:46:40.526Z,-1.30
2023-01-19T23:49:07.815Z,-1.30
2023-01-19T23:51:34.745Z,-1.20
2023-01-19T23:54:01.931Z,-1.10
2023-01-19T23:56:34.762Z,-1.10
2023-01-19T23:59:04.365Z,-1.10
